createdAt,value
2022-10-05T00:01:48.888Z,101351.81
2022-10-05T00:04:21.655Z,101340.00
2022-10-05T00:06:58.167Z,101337.00
2022-10-05T00:09:24.823Z,101324.59
2022-10-05T00:11:51.732Z,101329.47
2022-10-05T00:14:33.509Z,101324.44
2022-10-05T00:17:01.908Z,101331.84
2022-10-05T00:19:39.854Z,101334.28
2022-10-05T00:22:14.160Z,101326.59
2022-10-05T00:24:41.002Z,101331.78
2022-10-05T00:27:18.072Z,101332.00
2022-10-05T00:29:46.486Z,101334.97
2022-10-05T00:32:13.264Z,101338.31
2022-10-05T00:34:40.055Z,101336.88
2022-10-05T00:37:07.120Z,101350.06
2022-10-05T00:39:36.169Z,101336.03
2022-10-05T00:42:02.749Z,101333.22
2022-10-05T00:44:55.964Z,101323.00
2022-10-05T00:47:40.983Z,101330.38
2022-10-05T00:50:52.925Z,101326.19
2022-10-05T00:53:42.678Z,101325.34
2022-10-05T00:56:24.392Z,101322.09
2022-10-05T00:59:11.403Z,101315.44
2022-10-05T01:01:51.735Z,101311.94
2022-10-05T01:04:26.412Z,101304.25
2022-10-05T01:06:58.756Z,101307.03
2022-10-05T01:09:43.646Z,101307.50
2022-10-05T01:12:22.094Z,101300.88
2022-10-05T01:14:57.700Z,101302.53
2022-10-05T01:17:55.639Z,101306.44
2022-10-05T01:20:55.053Z,101298.91
2022-10-05T01:23:27.927Z,101307.75
2022-10-05T01:26:06.234Z,101304.25
2022-10-05T01:28:41.199Z,101310.28
2022-10-05T01:31:33.605Z,101312.38
2022-10-05T01:34:40.958Z,101302.47
2022-10-05T01:37:33.828Z,101303.47
2022-10-05T01:40:31.806Z,101295.97
2022-10-05T01:43:07.619Z,101306.50
2022-10-05T01:45:53.244Z,101292.94
2022-10-05T01:48:38.612Z,101305.81
2022-10-05T01:51:47.746Z,101304.66
2022-10-05T01:54:55.489Z,101293.84
2022-10-05T01:57:50.005Z,101289.50
2022-10-05T02:00:18.746Z,101274.63
2022-10-05T02:03:08.303Z,101277.97
2022-10-05T02:05:47.000Z,101274.63
2022-10-05T02:08:40.784Z,101284.16
2022-10-05T02:11:10.155Z,101276.81
2022-10-05T02:13:39.752Z,101283.47
2022-10-05T02:16:40.052Z,101282.47
2022-10-05T02:19:18.213Z,101273.47
2022-10-05T02:21:48.387Z,101280.47
2022-10-05T02:24:24.139Z,101276.13
2022-10-05T02:26:52.375Z,101274.00
2022-10-05T02:29:22.448Z,101252.28
2022-10-05T02:31:54.198Z,101252.78
2022-10-05T02:34:29.901Z,101249.13
2022-10-05T02:37:21.214Z,101250.97
2022-10-05T02:39:47.760Z,101236.41
2022-10-05T02:42:26.577Z,101228.25
2022-10-05T02:44:56.175Z,101228.25
2022-10-05T02:47:33.563Z,101231.38
2022-10-05T02:50:33.650Z,101222.19
2022-10-05T02:53:12.249Z,101220.03
2022-10-05T02:55:49.595Z,101225.69
2022-10-05T02:58:45.384Z,101219.53
2022-10-05T03:01:31.913Z,101211.78
2022-10-05T03:04:22.080Z,101212.13
2022-10-05T03:06:59.310Z,101215.84
2022-10-05T03:09:31.527Z,101218.00
2022-10-05T03:12:35.374Z,101214.03
2022-10-05T03:15:14.145Z,101207.00
2022-10-05T03:18:04.972Z,101201.66
2022-10-05T03:21:07.291Z,101191.59
2022-10-05T03:23:48.848Z,101181.75
2022-10-05T03:26:27.743Z,101196.06
2022-10-05T03:29:03.899Z,101181.34
2022-10-05T03:31:50.081Z,101184.34
2022-10-05T03:34:25.809Z,101175.84
2022-10-05T03:37:14.656Z,101178.47
2022-10-05T03:39:54.721Z,101171.31
2022-10-05T03:42:33.368Z,101170.91
2022-10-05T03:45:04.890Z,101157.69
2022-10-05T03:47:49.679Z,101174.22
2022-10-05T03:50:41.306Z,101171.34
2022-10-05T03:53:32.094Z,101167.22
2022-10-05T03:56:37.417Z,101175.63
2022-10-05T03:59:42.823Z,101203.88
2022-10-05T04:02:51.122Z,101204.25
2022-10-05T04:05:23.251Z,101201.84
2022-10-05T04:08:11.554Z,101207.69
2022-10-05T04:10:49.760Z,101194.97
2022-10-05T04:13:43.562Z,101198.53
2022-10-05T04:16:13.052Z,101207.06
2022-10-05T04:18:51.348Z,101197.91
2022-10-05T04:21:41.465Z,101195.88
2022-10-05T04:24:50.395Z,101188.41
2022-10-05T04:27:22.212Z,101195.16
2022-10-05T04:29:59.413Z,101201.88
2022-10-05T04:32:36.778Z,101192.34
2022-10-05T04:35:20.340Z,101200.41
2022-10-05T04:38:20.506Z,101196.72
2022-10-05T04:41:05.157Z,101192.22
2022-10-05T04:43:40.601Z,101186.22
2022-10-05T04:46:20.156Z,101188.56
2022-10-05T04:48:55.687Z,101182.91
2022-10-05T04:51:42.205Z,101167.22
2022-10-05T04:54:36.499Z,101172.88
2022-10-05T04:57:10.688Z,101158.00
2022-10-05T05:00:05.757Z,101165.38
2022-10-05T05:02:41.976Z,101163.19
2022-10-05T05:05:26.763Z,101170.88
2022-10-05T05:08:09.073Z,101166.53
2022-10-05T05:11:33.888Z,101157.84
2022-10-05T05:14:00.439Z,101167.84
2022-10-05T05:16:31.927Z,101168.38
2022-10-05T05:19:14.902Z,101165.53
2022-10-05T05:22:09.598Z,101167.69
2022-10-05T05:24:54.574Z,101162.50
2022-10-05T05:27:35.337Z,101164.88
2022-10-05T05:30:06.327Z,101161.69
2022-10-05T05:32:46.771Z,101171.19
2022-10-05T05:35:23.517Z,101168.16
2022-10-05T05:38:01.608Z,101165.19
2022-10-05T05:40:33.660Z,101158.50
2022-10-05T05:43:23.872Z,101169.22
2022-10-05T05:46:14.808Z,101165.53
2022-10-05T05:48:47.383Z,101163.00
2022-10-05T05:51:38.447Z,101166.69
2022-10-05T05:54:26.481Z,101167.91
2022-10-05T05:57:11.077Z,101164.75
2022-10-05T06:00:16.485Z,101159.13
2022-10-05T06:03:09.685Z,101173.00
2022-10-05T06:05:49.641Z,101166.50
2022-10-05T06:08:44.525Z,101139.28
2022-10-05T06:11:29.006Z,101165.75
2022-10-05T06:14:00.761Z,101156.19
2022-10-05T06:16:45.905Z,101161.47
2022-10-05T06:19:16.886Z,101160.25
2022-10-05T06:22:22.445Z,101152.66
2022-10-05T06:25:04.032Z,101152.84
2022-10-05T06:27:37.178Z,101152.31
2022-10-05T06:30:15.855Z,101143.53
2022-10-05T06:32:57.763Z,101152.88
2022-10-05T06:35:24.414Z,101161.72
2022-10-05T06:38:14.078Z,101156.91
2022-10-05T06:41:02.194Z,101147.94
2022-10-05T06:43:56.381Z,101153.78
2022-10-05T06:46:44.960Z,101153.28
2022-10-05T06:49:16.419Z,101156.13
2022-10-05T06:52:01.369Z,101155.13
2022-10-05T06:54:39.947Z,101160.34
2022-10-05T06:57:41.814Z,101157.66
2022-10-05T07:00:21.296Z,101169.22
2022-10-05T07:03:25.381Z,101168.38
2022-10-05T07:05:54.748Z,101168.56
2022-10-05T07:08:44.844Z,101172.41
2022-10-05T07:11:25.937Z,101171.38
2022-10-05T07:14:11.223Z,101166.41
2022-10-05T07:16:56.307Z,101169.41
2022-10-05T07:19:41.814Z,101169.41
2022-10-05T07:22:14.173Z,101175.09
2022-10-05T07:24:58.250Z,101168.75
2022-10-05T07:27:29.150Z,101162.91
2022-10-05T07:30:01.463Z,101170.09
2022-10-05T07:32:35.791Z,101165.41
2022-10-05T07:35:47.615Z,101168.78
2022-10-05T07:38:27.623Z,101171.94
2022-10-05T07:41:06.931Z,101167.78
2022-10-05T07:44:12.401Z,101183.81
2022-10-05T07:46:56.997Z,101185.81
2022-10-05T07:49:37.967Z,101165.41
2022-10-05T07:52:53.759Z,101177.31
2022-10-05T07:55:26.955Z,101169.63
2022-10-05T07:58:11.348Z,101183.69
2022-10-05T08:01:03.017Z,101196.06
2022-10-05T08:03:36.286Z,101178.00
2022-10-05T08:06:05.816Z,101178.81
2022-10-05T08:09:01.751Z,101181.84
2022-10-05T08:11:35.062Z,101179.47
2022-10-05T08:14:40.066Z,101191.50
2022-10-05T08:17:26.557Z,101179.28
2022-10-05T08:20:08.740Z,101180.44
2022-10-05T08:22:46.200Z,101172.09
2022-10-05T08:25:31.353Z,101185.13
2022-10-05T08:28:13.553Z,101181.75
2022-10-05T08:31:10.207Z,101171.38
2022-10-05T08:33:51.370Z,101162.28
2022-10-05T08:36:29.237Z,101160.25
2022-10-05T08:39:00.494Z,101165.09
2022-10-05T08:42:16.126Z,101150.13
2022-10-05T08:44:56.691Z,101142.72
2022-10-05T08:47:54.150Z,101144.31
2022-10-05T08:50:26.402Z,101140.09
2022-10-05T08:53:09.098Z,101143.88
2022-10-05T08:55:54.041Z,101138.72
2022-10-05T08:58:50.419Z,101141.13
2022-10-05T09:01:55.522Z,101131.47
2022-10-05T09:04:49.577Z,101110.00
2022-10-05T09:07:31.568Z,101128.84
2022-10-05T09:10:02.066Z,101117.09
2022-10-05T09:12:50.452Z,101132.66
2022-10-05T09:15:41.842Z,101132.28
2022-10-05T09:18:17.520Z,101125.63
2022-10-05T09:20:56.243Z,101123.78
2022-10-05T09:23:34.624Z,101116.03
2022-10-05T09:26:07.279Z,101114.66
2022-10-05T09:29:04.247Z,101114.97
2022-10-05T09:31:46.265Z,101110.81
2022-10-05T09:34:49.196Z,101097.94
2022-10-05T09:37:29.925Z,101098.09
2022-10-05T09:40:47.769Z,101108.03
2022-10-05T09:43:31.367Z,101097.84
2022-10-05T09:46:27.825Z,101096.09
2022-10-05T09:48:57.489Z,101093.53
2022-10-05T09:52:01.777Z,101087.44
2022-10-05T09:55:06.737Z,101093.41
2022-10-05T09:58:12.194Z,101095.56
2022-10-05T10:01:03.714Z,101077.59
2022-10-05T10:04:37.129Z,101082.44
2022-10-05T10:10:45.708Z,101076.09
2022-10-05T10:13:46.872Z,101071.28
2022-10-05T10:16:43.597Z,101072.69
2022-10-05T10:19:36.430Z,101030.50
2022-10-05T10:22:30.947Z,101060.91
2022-10-05T10:25:22.145Z,101051.63
2022-10-05T10:28:06.198Z,101048.06
2022-10-05T10:30:51.986Z,101049.75
2022-10-05T10:33:52.856Z,101052.44
2022-10-05T10:37:01.142Z,101047.25
2022-10-05T10:40:26.129Z,101048.72
2022-10-05T10:42:56.564Z,101042.44
2022-10-05T10:46:00.660Z,101040.38
2022-10-05T10:48:30.372Z,101051.41
2022-10-05T10:51:02.667Z,101040.84
2022-10-05T10:53:38.940Z,101037.78
2022-10-05T10:56:17.283Z,101035.94
2022-10-05T10:58:49.829Z,101044.44
2022-10-05T11:01:32.689Z,101045.34
2022-10-05T11:04:14.555Z,101042.75
2022-10-05T11:07:04.928Z,101025.69
2022-10-05T11:09:50.212Z,101030.16
2022-10-05T11:12:47.719Z,101026.31
2022-10-05T11:15:35.905Z,101027.78
2022-10-05T11:18:11.510Z,101017.22
2022-10-05T11:20:49.976Z,101018.63
2022-10-05T11:23:42.810Z,101012.16
2022-10-05T11:26:15.405Z,100999.03
2022-10-05T11:29:04.696Z,100999.91
2022-10-05T11:31:57.778Z,100992.09
2022-10-05T11:34:48.202Z,100994.03
2022-10-05T11:37:50.682Z,100982.06
2022-10-05T11:41:08.179Z,100971.88
2022-10-05T11:43:56.879Z,100980.94
2022-10-05T11:46:32.402Z,100984.09
2022-10-05T11:49:20.351Z,100969.97
2022-10-05T11:52:16.911Z,100946.84
2022-10-05T11:55:10.397Z,100945.28
2022-10-05T11:57:48.056Z,100955.72
2022-10-05T12:00:19.331Z,100946.84
2022-10-05T12:03:01.462Z,100943.50
2022-10-05T12:05:52.573Z,100937.91
2022-10-05T12:08:33.660Z,100927.06
2022-10-05T12:11:03.036Z,100936.47
2022-10-05T12:13:40.502Z,100939.81
2022-10-05T12:16:16.189Z,100924.53
2022-10-05T12:18:57.273Z,100916.22
2022-10-05T12:25:02.153Z,100929.31
2022-10-05T12:27:37.569Z,100907.81
2022-10-05T12:30:24.357Z,100907.28
2022-10-05T12:33:02.192Z,100898.31
2022-10-05T12:35:48.920Z,100913.91
2022-10-05T12:38:30.526Z,100899.31
2022-10-05T12:41:14.451Z,100918.91
2022-10-05T12:43:50.695Z,100911.84
2022-10-05T12:46:43.667Z,100906.88
2022-10-05T12:49:29.738Z,100909.88
2022-10-05T12:52:02.566Z,100892.66
2022-10-05T12:54:37.307Z,100912.91
2022-10-05T12:57:11.686Z,100896.69
2022-10-05T12:59:50.579Z,100920.47
2022-10-05T13:02:35.861Z,100900.44
2022-10-05T13:05:28.372Z,100887.94
2022-10-05T13:08:00.701Z,100891.16
2022-10-05T13:10:49.605Z,100904.81
2022-10-05T13:13:33.726Z,100885.75
2022-10-05T13:16:19.117Z,100893.59
2022-10-05T13:19:06.701Z,100894.28
2022-10-05T13:21:49.990Z,100877.88
2022-10-05T13:24:36.843Z,100880.66
2022-10-05T13:27:22.008Z,100879.66
2022-10-05T13:29:58.449Z,100872.81
2022-10-05T13:32:46.041Z,100870.31
2022-10-05T13:35:30.822Z,100866.22
2022-10-05T13:38:04.055Z,100871.56
2022-10-05T13:40:49.828Z,100878.47
2022-10-05T13:43:25.273Z,100873.94
2022-10-05T13:46:05.372Z,100871.50
2022-10-05T13:48:47.434Z,100871.63
2022-10-05T13:51:47.996Z,100867.84
2022-10-05T13:54:40.305Z,100867.13
2022-10-05T13:57:22.198Z,100869.63
2022-10-05T14:00:11.784Z,100860.75
2022-10-05T14:02:42.345Z,100849.28
2022-10-05T14:05:19.606Z,100864.50
2022-10-05T14:07:52.452Z,100853.69
2022-10-05T14:10:40.285Z,100832.97
2022-10-05T14:13:33.072Z,100849.38
2022-10-05T14:16:14.093Z,100845.47
2022-10-05T14:18:51.861Z,100828.06
2022-10-05T14:21:42.514Z,100838.72
2022-10-05T14:24:50.873Z,100832.00
2022-10-05T14:27:19.584Z,100848.78
2022-10-05T14:29:56.309Z,100821.81
2022-10-05T14:32:24.684Z,100837.91
2022-10-05T14:35:05.326Z,100832.84
2022-10-05T14:38:02.835Z,100822.63
2022-10-05T14:40:33.732Z,100806.13
2022-10-05T14:43:14.291Z,100804.06
2022-10-05T14:45:59.205Z,100800.91
2022-10-05T14:48:28.716Z,100799.03
2022-10-05T14:51:03.538Z,100814.84
2022-10-05T14:53:56.018Z,100806.34
2022-10-05T14:56:41.383Z,100811.75
2022-10-05T14:59:14.645Z,100796.00
2022-10-05T15:02:13.539Z,100796.47
2022-10-05T15:04:45.736Z,100799.72
2022-10-05T15:07:28.221Z,100795.22
2022-10-05T15:10:16.454Z,100802.75
2022-10-05T15:12:49.847Z,100783.88
2022-10-05T15:15:32.878Z,100795.25
2022-10-05T15:18:32.416Z,100787.50
2022-10-05T15:21:24.323Z,100797.53
2022-10-05T15:24:00.489Z,100791.78
2022-10-05T15:26:27.065Z,100805.31
2022-10-05T15:29:09.950Z,100795.47
2022-10-05T15:31:57.872Z,100802.25
2022-10-05T15:34:36.355Z,100792.34
2022-10-05T15:38:10.002Z,100806.16
2022-10-05T15:40:44.819Z,100815.56
2022-10-05T15:43:19.354Z,100804.75
2022-10-05T15:46:16.817Z,100790.66
2022-10-05T15:49:02.156Z,100803.94
2022-10-05T15:51:58.999Z,100812.06
2022-10-05T15:54:43.966Z,100810.63
2022-10-05T15:57:32.169Z,100816.41
2022-10-05T16:00:04.618Z,100815.72
2022-10-05T16:03:19.502Z,100825.44
2022-10-05T16:06:15.220Z,100827.38
2022-10-05T16:09:10.468Z,100836.06
2022-10-05T16:11:40.533Z,100831.66
2022-10-05T16:14:28.127Z,100843.38
2022-10-05T16:17:24.277Z,100847.13
2022-10-05T16:20:09.082Z,100837.69
2022-10-05T16:22:47.919Z,100847.53
2022-10-05T16:25:25.248Z,100843.47
2022-10-05T16:28:38.438Z,100856.47
2022-10-05T16:31:18.281Z,100846.59
2022-10-05T16:34:17.287Z,100854.47
2022-10-05T16:37:02.596Z,100863.09
2022-10-05T16:40:06.276Z,100847.72
2022-10-05T16:42:51.044Z,100859.56
2022-10-05T16:45:45.814Z,100856.03
2022-10-05T16:48:24.866Z,100859.97
2022-10-05T16:51:39.301Z,100872.69
2022-10-05T16:54:12.212Z,100872.06
2022-10-05T16:56:43.641Z,100862.94
2022-10-05T16:59:38.280Z,100875.38
2022-10-05T17:02:31.621Z,100869.81
2022-10-05T17:05:26.645Z,100891.38
2022-10-05T17:07:57.633Z,100890.78
2022-10-05T17:10:27.060Z,100899.69
2022-10-05T17:13:13.692Z,100904.88
2022-10-05T17:16:26.111Z,100895.34
2022-10-05T17:19:04.665Z,100916.91
2022-10-05T17:21:37.413Z,100910.69
2022-10-05T17:24:41.878Z,100922.28
2022-10-05T17:27:33.047Z,100939.72
2022-10-05T17:30:21.015Z,100940.56
2022-10-05T17:33:17.941Z,100948.22
2022-10-05T17:35:52.214Z,100948.81
2022-10-05T17:38:41.865Z,100960.63
2022-10-05T17:41:29.630Z,100963.28
2022-10-05T18:02:37.561Z,101042.41
2022-10-05T18:05:04.559Z,101048.31
2022-10-05T18:07:34.808Z,101047.25
2022-10-05T18:13:50.384Z,101046.31
2022-10-05T18:16:54.441Z,101043.63
2022-10-05T18:19:22.483Z,101026.84
2022-10-05T18:22:18.168Z,101038.41
2022-10-05T18:24:56.227Z,101027.63
2022-10-05T18:27:47.112Z,101028.47
2022-10-05T18:30:27.113Z,101010.75
2022-10-05T18:36:53.475Z,101026.50
2022-10-05T18:39:41.065Z,101039.69
2022-10-05T18:42:38.801Z,101046.50
2022-10-05T18:45:23.706Z,101045.66
2022-10-05T18:48:18.384Z,101048.31
2022-10-05T18:51:04.756Z,101051.75
2022-10-05T18:53:40.631Z,101063.44
2022-10-05T18:56:40.943Z,101054.97
2022-10-05T18:59:27.232Z,101062.78
2022-10-05T19:02:23.499Z,101054.97
2022-10-05T19:05:23.610Z,101062.19
2022-10-05T19:07:59.458Z,101055.78
2022-10-05T19:10:30.596Z,101043.03
2022-10-05T19:13:02.948Z,101062.78
2022-10-05T19:15:35.447Z,101067.38
2022-10-05T19:18:15.251Z,101059.94
2022-10-05T19:21:01.139Z,101046.19
2022-10-05T19:23:40.204Z,101069.88
2022-10-05T19:26:19.133Z,101080.41
2022-10-05T19:28:54.892Z,101075.03
2022-10-05T19:31:33.474Z,101091.41
2022-10-05T19:34:14.451Z,101090.19
2022-10-05T19:37:03.323Z,101081.34
2022-10-05T19:40:04.624Z,101081.53
2022-10-05T19:43:01.654Z,101085.50
2022-10-05T19:45:32.112Z,101076.16
2022-10-05T19:48:37.635Z,101076.59
2022-10-05T19:51:12.945Z,101076.59
2022-10-05T19:53:50.233Z,101076.88
2022-10-05T19:56:21.291Z,101074.81
2022-10-05T19:58:50.030Z,101064.25
2022-10-05T20:01:31.493Z,101069.88
2022-10-05T20:03:58.358Z,101067.16
2022-10-05T20:06:26.898Z,101055.91
2022-10-05T20:09:00.269Z,101077.16
2022-10-05T20:11:32.178Z,101072.56
2022-10-05T20:14:01.860Z,101081.25
2022-10-05T20:16:48.983Z,101072.13
2022-10-05T20:20:03.774Z,101072.75
2022-10-05T20:22:46.386Z,101073.19
2022-10-05T20:25:19.008Z,101080.81
2022-10-05T20:27:48.334Z,101092.22
2022-10-05T20:30:41.208Z,101085.38
2022-10-05T20:33:14.629Z,101085.41
2022-10-05T20:35:41.299Z,101089.53
2022-10-05T20:38:07.964Z,101093.44
2022-10-05T20:40:35.772Z,101087.88
2022-10-05T20:43:02.457Z,101082.44
2022-10-05T20:45:29.122Z,101101.72
2022-10-05T20:47:56.262Z,101096.53
2022-10-05T20:50:23.008Z,101101.28
2022-10-05T20:52:49.800Z,101124.72
2022-10-05T20:55:16.430Z,101118.56
2022-10-05T20:57:43.159Z,101122.06
2022-10-05T21:00:11.773Z,101129.13
2022-10-05T21:02:38.816Z,101120.56
2022-10-05T21:05:06.356Z,101135.53
2022-10-05T21:07:34.321Z,101124.72
2022-10-05T21:10:02.414Z,101142.53
2022-10-05T21:12:34.190Z,101145.91
2022-10-05T21:15:01.671Z,101142.97
2022-10-05T21:17:31.815Z,101145.41
2022-10-05T21:20:01.165Z,101148.84
2022-10-05T21:22:38.023Z,101127.16
2022-10-05T21:25:10.259Z,101128.75
2022-10-05T21:27:37.357Z,101162.69
2022-10-05T21:30:07.192Z,101121.19
2022-10-05T21:32:44.226Z,101148.31
2022-10-05T21:35:16.455Z,101137.97
2022-10-05T21:37:52.364Z,101178.75
2022-10-05T21:40:19.983Z,101143.22
2022-10-05T21:42:46.886Z,101164.06
2022-10-05T21:45:14.714Z,101129.22
2022-10-05T21:47:42.101Z,101195.19
2022-10-05T21:50:10.435Z,101193.34
2022-10-05T21:52:37.779Z,101178.53
2022-10-05T21:55:05.785Z,101153.34
2022-10-05T21:57:35.099Z,101184.81
2022-10-05T22:00:04.253Z,101200.06
2022-10-05T22:02:31.466Z,101204.38
2022-10-05T22:04:58.534Z,101233.31
2022-10-05T22:07:25.216Z,101326.72
2022-10-05T22:09:51.866Z,101319.59
2022-10-05T22:12:19.998Z,101325.38
2022-10-05T22:14:47.641Z,101342.50
2022-10-05T22:17:32.695Z,101367.97
2022-10-05T22:19:59.729Z,101375.56
2022-10-05T22:22:28.508Z,101379.72
2022-10-05T22:24:55.824Z,101386.97
2022-10-05T22:27:24.983Z,101405.53
2022-10-05T22:29:51.838Z,101419.16
2022-10-05T22:32:18.493Z,101420.91
2022-10-05T22:34:45.491Z,101420.22
2022-10-05T22:37:16.677Z,101410.84
2022-10-05T22:39:43.761Z,101460.25
2022-10-05T22:42:10.457Z,101468.94
2022-10-05T22:44:37.102Z,101469.63
2022-10-05T22:47:04.000Z,101455.78
2022-10-05T22:49:30.716Z,101475.13
2022-10-05T22:51:57.436Z,101464.50
2022-10-05T22:54:28.772Z,101497.09
2022-10-05T22:56:56.408Z,101488.63
2022-10-05T22:59:23.043Z,101495.66
2022-10-05T23:01:49.694Z,101489.78
2022-10-05T23:04:16.414Z,101483.75
2022-10-05T23:06:43.148Z,101472.94
2022-10-05T23:09:09.745Z,101488.16
2022-10-05T23:11:36.403Z,101477.63
2022-10-05T23:14:03.182Z,101478.25
2022-10-05T23:16:30.085Z,101478.78
2022-10-05T23:18:57.356Z,101486.25
2022-10-05T23:21:27.236Z,101496.50
2022-10-05T23:23:54.115Z,101497.63
2022-10-05T23:26:23.234Z,101506.84
2022-10-05T23:28:50.362Z,101488.78
2022-10-05T23:31:22.531Z,101498.53
2022-10-05T23:33:49.732Z,101503.03
2022-10-05T23:36:21.672Z,101518.75
2022-10-05T23:38:48.819Z,101517.25
2022-10-05T23:41:20.041Z,101513.28
2022-10-05T23:43:47.102Z,101519.38
2022-10-05T23:46:14.149Z,101521.69
2022-10-05T23:48:41.130Z,101526.41
2022-10-05T23:51:10.715Z,101522.53
2022-10-05T23:53:37.462Z,101525.88
2022-10-05T23:56:04.526Z,101530.91
2022-10-05T23:58:31.549Z,101528.56
